createdAt,value
2022-12-29T00:02:19.080Z,57.40
2022-12-29T00:04:46.992Z,57.40
2022-12-29T00:07:16.183Z,57.60
2022-12-29T00:09:44.063Z,57.40
2022-12-29T00:12:11.937Z,57.30
2022-12-29T00:14:57.259Z,57.80
2022-12-29T00:17:25.150Z,58.10
2022-12-29T00:20:10.509Z,57.50
2022-12-29T00:22:57.242Z,57.70
2022-12-29T00:25:42.475Z,58.30
2022-12-29T00:28:27.978Z,58.60
2022-12-29T00:31:13.612Z,58.60
2022-12-29T00:33:59.420Z,58.90
2022-12-29T00:36:28.909Z,58.90
2022-12-29T00:39:18.262Z,59.20
2022-12-29T00:42:03.664Z,59.20
2022-12-29T00:44:31.923Z,59.60
2022-12-29T00:47:03.322Z,59.60
2022-12-29T00:49:33.184Z,60.80
2022-12-29T00:52:03.524Z,59.90
2022-12-29T00:54:33.537Z,59.90
2022-12-29T00:57:02.115Z,60.30
2022-12-29T00:59:30.671Z,60.30
2022-12-29T01:01:58.674Z,60.60
2022-12-29T01:04:27.298Z,60.80
2022-12-29T01:06:55.263Z,61.00
2022-12-29T01:09:40.896Z,60.80
2022-12-29T01:12:10.887Z,61.20
2022-12-29T01:14:38.893Z,61.30
2022-12-29T01:17:06.786Z,61.00
2022-12-29T01:19:35.226Z,61.10
2022-12-29T01:22:03.127Z,61.30
2022-12-29T01:24:31.187Z,61.30
2022-12-29T01:26:59.071Z,61.30
2022-12-29T01:29:28.396Z,61.20
2022-12-29T01:31:56.306Z,61.30
2022-12-29T01:34:24.367Z,61.10
2022-12-29T01:36:52.213Z,61.20
2022-12-29T01:39:20.128Z,61.10
2022-12-29T01:41:48.011Z,61.00
2022-12-29T01:44:54.319Z,61.00
2022-12-29T01:47:29.686Z,62.00
2022-12-29T01:49:58.985Z,61.00
2022-12-29T01:52:27.774Z,61.00
2022-12-29T01:54:55.700Z,61.00
2022-12-29T01:57:26.937Z,60.90
2022-12-29T01:59:57.638Z,60.80
2022-12-29T02:02:26.032Z,60.80
2022-12-29T02:04:53.936Z,60.70
2022-12-29T02:07:23.260Z,60.70
2022-12-29T02:09:51.628Z,60.70
2022-12-29T02:12:19.641Z,60.60
2022-12-29T02:14:47.564Z,60.60
2022-12-29T02:17:20.351Z,60.70
2022-12-29T02:20:27.913Z,60.90
2022-12-29T02:23:03.107Z,60.90
2022-12-29T02:25:59.664Z,61.10
2022-12-29T02:28:42.120Z,61.00
2022-12-29T02:31:14.414Z,60.90
2022-12-29T02:33:52.419Z,60.80
2022-12-29T02:36:23.723Z,60.70
2022-12-29T02:38:56.521Z,60.70
2022-12-29T02:41:26.933Z,60.50
2022-12-29T02:43:57.763Z,60.40
2022-12-29T02:46:30.235Z,60.60
2022-12-29T02:49:01.707Z,60.70
2022-12-29T02:51:33.555Z,60.80
2022-12-29T02:54:19.192Z,60.90
2022-12-29T02:56:47.894Z,61.00
2022-12-29T02:59:15.773Z,61.00
2022-12-29T03:02:23.227Z,61.20
2022-12-29T03:05:19.844Z,61.30
2022-12-29T03:07:52.029Z,61.30
2022-12-29T03:10:26.683Z,61.30
2022-12-29T03:13:13.927Z,61.30
2022-12-29T03:16:00.895Z,61.40
2022-12-29T03:18:35.772Z,61.40
2022-12-29T03:21:05.984Z,61.60
2022-12-29T03:23:35.044Z,61.40
2022-12-29T03:26:04.420Z,61.60
2022-12-29T03:28:36.034Z,61.50
2022-12-29T03:31:04.550Z,61.50
2022-12-29T03:33:33.949Z,61.50
2022-12-29T03:36:05.950Z,61.60
2022-12-29T03:38:42.082Z,61.70
2022-12-29T03:41:11.148Z,61.40
2022-12-29T03:43:39.082Z,61.50
2022-12-29T03:46:07.372Z,61.50
2022-12-29T03:48:37.473Z,61.60
2022-12-29T03:51:05.470Z,61.40
2022-12-29T03:53:33.919Z,61.50
2022-12-29T03:56:02.303Z,61.40
2022-12-29T03:58:30.549Z,61.30
2022-12-29T04:01:07.444Z,61.20
2022-12-29T04:03:39.876Z,61.20
2022-12-29T04:06:09.010Z,61.10
2022-12-29T04:08:45.116Z,61.00
2022-12-29T04:11:14.145Z,61.00
2022-12-29T04:13:42.870Z,61.00
2022-12-29T04:16:14.728Z,60.90
2022-12-29T04:18:44.687Z,60.90
2022-12-29T04:21:12.596Z,60.80
2022-12-29T04:23:43.063Z,60.70
2022-12-29T04:26:12.026Z,60.70
2022-12-29T04:28:50.883Z,60.60
2022-12-29T04:31:37.432Z,60.70
2022-12-29T04:34:07.229Z,60.60
2022-12-29T04:36:35.360Z,60.60
2022-12-29T04:39:03.315Z,60.70
2022-12-29T04:41:31.368Z,60.70
2022-12-29T04:43:59.302Z,60.60
2022-12-29T04:46:58.352Z,60.60
2022-12-29T04:49:44.080Z,60.60
2022-12-29T04:52:30.820Z,60.50
2022-12-29T04:54:58.764Z,60.40
2022-12-29T04:57:26.696Z,60.40
2022-12-29T04:59:57.931Z,61.30
2022-12-29T05:02:26.478Z,60.50
2022-12-29T05:04:57.223Z,60.40
2022-12-29T05:07:26.039Z,60.50
2022-12-29T05:09:55.022Z,60.50
2022-12-29T05:12:22.952Z,60.50
2022-12-29T05:14:58.387Z,60.60
2022-12-29T05:17:26.406Z,60.70
2022-12-29T05:19:54.750Z,60.70
2022-12-29T05:22:24.395Z,60.70
2022-12-29T05:24:52.490Z,60.70
2022-12-29T05:27:20.544Z,60.60
2022-12-29T05:30:01.282Z,60.70
2022-12-29T05:32:29.132Z,60.80
2022-12-29T05:34:57.108Z,60.70
2022-12-29T05:37:27.511Z,60.70
2022-12-29T05:39:55.760Z,60.80
2022-12-29T05:42:24.164Z,60.80
2022-12-29T05:45:16.120Z,60.80
2022-12-29T05:47:55.709Z,60.90
2022-12-29T05:50:43.596Z,60.70
2022-12-29T05:53:15.807Z,60.60
2022-12-29T05:55:48.518Z,60.60
2022-12-29T05:58:17.423Z,60.60
2022-12-29T06:00:45.439Z,60.40
2022-12-29T06:03:13.820Z,60.40
2022-12-29T06:05:43.081Z,60.40
2022-12-29T06:08:11.158Z,61.40
2022-12-29T06:10:40.353Z,60.40
2022-12-29T06:13:09.987Z,61.30
2022-12-29T06:15:41.334Z,60.30
2022-12-29T06:18:13.719Z,60.20
2022-12-29T06:20:47.389Z,60.70
2022-12-29T06:23:17.553Z,60.10
2022-12-29T06:25:46.933Z,60.10
2022-12-29T06:28:15.091Z,60.10
2022-12-29T06:30:45.587Z,60.00
2022-12-29T06:33:13.500Z,60.00
2022-12-29T06:35:42.267Z,60.00
2022-12-29T06:38:10.158Z,60.00
2022-12-29T06:40:38.030Z,60.00
2022-12-29T06:43:17.888Z,59.90
2022-12-29T06:46:03.080Z,59.90
2022-12-29T06:48:31.035Z,59.90
2022-12-29T06:50:58.979Z,59.80
2022-12-29T06:53:26.845Z,59.70
2022-12-29T06:55:54.807Z,59.70
2022-12-29T06:58:24.671Z,59.70
2022-12-29T07:00:52.601Z,59.70
2022-12-29T07:03:20.611Z,59.70
2022-12-29T07:05:48.578Z,59.60
2022-12-29T07:08:16.515Z,59.60
2022-12-29T07:10:45.176Z,59.60
2022-12-29T07:13:13.200Z,59.50
2022-12-29T07:15:42.438Z,59.40
2022-12-29T07:18:10.320Z,59.30
2022-12-29T07:20:38.223Z,59.40
2022-12-29T07:23:06.068Z,59.40
2022-12-29T07:25:33.949Z,59.30
2022-12-29T07:28:01.858Z,59.40
2022-12-29T07:30:29.745Z,59.60
2022-12-29T07:32:58.979Z,59.50
2022-12-29T07:35:26.873Z,59.70
2022-12-29T07:37:54.728Z,59.70
2022-12-29T07:40:22.575Z,59.80
2022-12-29T07:42:50.530Z,60.00
2022-12-29T07:45:27.115Z,60.00
2022-12-29T07:48:10.982Z,59.90
2022-12-29T07:50:38.831Z,59.90
2022-12-29T07:53:06.716Z,59.90
2022-12-29T07:55:34.600Z,59.90
2022-12-29T07:58:02.509Z,59.90
2022-12-29T08:00:30.421Z,59.80
2022-12-29T08:03:00.053Z,59.90
2022-12-29T08:05:29.269Z,59.90
2022-12-29T08:07:57.820Z,59.70
2022-12-29T08:10:25.879Z,59.60
2022-12-29T08:12:53.780Z,59.60
2022-12-29T08:15:23.461Z,59.50
2022-12-29T08:17:55.237Z,59.50
2022-12-29T08:20:23.069Z,59.40
2022-12-29T08:22:53.328Z,59.60
2022-12-29T08:25:21.509Z,59.50
2022-12-29T08:27:49.402Z,59.40
2022-12-29T08:30:17.451Z,59.50
2022-12-29T08:32:45.383Z,59.30
2022-12-29T08:35:13.735Z,59.40
2022-12-29T08:37:41.630Z,59.20
2022-12-29T08:40:12.100Z,59.10
2022-12-29T08:42:40.490Z,59.10
2022-12-29T08:45:09.855Z,59.00
2022-12-29T08:47:37.858Z,59.00
2022-12-29T08:50:06.486Z,59.00
2022-12-29T08:52:34.396Z,59.00
2022-12-29T08:55:02.277Z,59.00
2022-12-29T08:57:32.569Z,59.00
2022-12-29T09:00:08.626Z,59.00
2022-12-29T09:02:36.684Z,59.10
2022-12-29T09:05:05.478Z,59.30
2022-12-29T09:07:33.389Z,59.40
2022-12-29T09:10:01.274Z,59.60
2022-12-29T09:12:34.495Z,59.60
2022-12-29T09:15:06.456Z,59.60
2022-12-29T09:17:43.589Z,59.60
2022-12-29T09:20:11.593Z,59.50
2022-12-29T09:22:39.529Z,59.50
2022-12-29T09:25:07.990Z,59.40
2022-12-29T09:27:36.111Z,59.50
2022-12-29T09:30:06.652Z,59.40
2022-12-29T09:32:36.834Z,59.40
2022-12-29T09:35:07.328Z,59.40
2022-12-29T09:37:35.245Z,59.40
2022-12-29T09:40:03.162Z,59.50
2022-12-29T09:42:34.606Z,59.40
2022-12-29T09:45:16.271Z,59.70
2022-12-29T09:47:44.755Z,59.80
2022-12-29T09:50:24.525Z,59.50
2022-12-29T09:52:54.667Z,59.60
2022-12-29T09:55:23.898Z,59.40
2022-12-29T09:57:56.365Z,59.40
2022-12-29T10:00:30.136Z,59.50
2022-12-29T10:03:00.792Z,59.50
2022-12-29T10:05:32.721Z,59.40
2022-12-29T10:08:15.761Z,59.60
2022-12-29T10:10:55.442Z,59.70
2022-12-29T10:13:32.321Z,59.60
2022-12-29T10:16:04.938Z,59.60
2022-12-29T10:18:53.926Z,59.50
2022-12-29T10:21:29.030Z,59.70
2022-12-29T10:23:56.902Z,59.60
2022-12-29T10:26:25.922Z,59.50
2022-12-29T10:28:54.867Z,59.50
2022-12-29T10:31:25.187Z,59.40
2022-12-29T10:33:55.924Z,59.40
2022-12-29T10:36:28.524Z,59.50
2022-12-29T10:39:04.184Z,59.40
2022-12-29T10:41:37.299Z,59.30
2022-12-29T10:44:05.325Z,59.30
2022-12-29T10:46:36.093Z,59.20
2022-12-29T10:49:04.140Z,59.10
2022-12-29T10:51:35.283Z,59.20
2022-12-29T10:54:05.220Z,59.20
2022-12-29T10:56:35.232Z,59.00
2022-12-29T10:59:05.292Z,59.10
2022-12-29T11:01:39.604Z,59.00
2022-12-29T11:04:10.667Z,59.00
2022-12-29T11:06:38.809Z,58.90
2022-12-29T11:09:11.927Z,59.80
2022-12-29T11:11:39.774Z,58.90
2022-12-29T11:14:14.243Z,58.80
2022-12-29T11:16:45.142Z,58.80
2022-12-29T11:19:23.366Z,58.70
2022-12-29T11:21:51.349Z,58.70
2022-12-29T11:24:24.173Z,58.80
2022-12-29T11:26:53.912Z,58.70
2022-12-29T11:29:26.575Z,58.70
2022-12-29T11:31:56.437Z,58.70
2022-12-29T11:34:26.182Z,58.60
2022-12-29T11:36:56.204Z,58.60
2022-12-29T11:39:36.531Z,58.60
2022-12-29T11:42:04.599Z,58.30
2022-12-29T11:44:36.832Z,58.30
2022-12-29T11:47:06.166Z,58.40
2022-12-29T11:49:34.219Z,58.50
2022-12-29T11:52:02.163Z,58.60
2022-12-29T11:54:31.750Z,58.60
2022-12-29T11:57:00.637Z,58.80
2022-12-29T11:59:43.483Z,59.00
2022-12-29T12:02:43.133Z,59.30
2022-12-29T12:05:15.393Z,59.30
2022-12-29T12:07:45.654Z,59.50
2022-12-29T12:10:18.430Z,59.40
2022-12-29T12:12:49.321Z,59.50
2022-12-29T12:15:20.142Z,59.70
2022-12-29T12:17:56.714Z,59.60
2022-12-29T12:20:27.657Z,59.70
2022-12-29T12:23:01.348Z,59.60
2022-12-29T12:25:32.758Z,59.70
2022-12-29T12:28:02.300Z,59.70
2022-12-29T12:30:31.104Z,59.60
2022-12-29T12:33:03.248Z,59.60
2022-12-29T12:35:34.648Z,59.70
2022-12-29T12:38:10.079Z,59.70
2022-12-29T12:40:50.604Z,59.60
2022-12-29T12:43:27.615Z,59.60
2022-12-29T12:46:04.562Z,59.60
2022-12-29T12:48:49.303Z,59.60
2022-12-29T12:51:19.264Z,59.70
2022-12-29T12:53:53.583Z,59.60
2022-12-29T12:56:31.670Z,59.70
2022-12-29T12:59:08.971Z,59.80
2022-12-29T13:01:41.021Z,59.70
2022-12-29T13:04:21.360Z,59.80
2022-12-29T13:06:51.409Z,59.80
2022-12-29T13:09:31.801Z,59.60
2022-12-29T13:12:08.030Z,59.90
2022-12-29T13:14:42.775Z,60.00
2022-12-29T13:17:14.180Z,60.10
2022-12-29T13:19:46.626Z,60.10
2022-12-29T13:22:15.734Z,60.00
2022-12-29T13:24:49.993Z,60.00
2022-12-29T13:27:20.938Z,60.00
2022-12-29T13:29:52.809Z,60.00
2022-12-29T13:32:25.712Z,59.90
2022-12-29T13:35:01.011Z,59.70
2022-12-29T13:37:29.734Z,59.80
2022-12-29T13:39:58.541Z,59.70
2022-12-29T13:42:26.454Z,59.50
2022-12-29T13:44:56.524Z,59.50
2022-12-29T13:47:27.135Z,59.50
2022-12-29T13:49:56.372Z,59.40
2022-12-29T13:52:27.100Z,59.40
2022-12-29T13:54:59.362Z,59.30
2022-12-29T13:57:41.556Z,59.30
2022-12-29T14:00:14.206Z,59.20
2022-12-29T14:02:48.929Z,59.40
2022-12-29T14:05:36.525Z,59.30
2022-12-29T14:08:05.144Z,59.30
2022-12-29T14:10:36.255Z,59.30
2022-12-29T14:13:06.627Z,59.10
2022-12-29T14:15:34.529Z,59.20
2022-12-29T14:18:05.990Z,59.10
2022-12-29T14:20:34.024Z,59.00
2022-12-29T14:23:04.095Z,58.90
2022-12-29T14:25:55.952Z,58.80
2022-12-29T14:28:25.186Z,58.80
2022-12-29T14:30:54.156Z,58.60
2022-12-29T14:33:22.918Z,58.50
2022-12-29T14:35:53.176Z,58.50
2022-12-29T14:38:24.596Z,58.40
2022-12-29T14:40:53.071Z,58.30
2022-12-29T14:43:23.628Z,58.30
2022-12-29T14:45:59.010Z,58.30
2022-12-29T14:48:38.938Z,58.30
2022-12-29T14:51:28.988Z,58.30
2022-12-29T14:53:58.235Z,58.30
2022-12-29T14:56:32.281Z,58.20
2022-12-29T14:59:01.331Z,58.20
2022-12-29T15:01:38.395Z,58.20
2022-12-29T15:04:14.929Z,58.20
2022-12-29T15:06:42.851Z,58.20
2022-12-29T15:09:18.879Z,58.10
2022-12-29T15:11:50.231Z,58.00
2022-12-29T15:14:35.583Z,58.00
2022-12-29T15:17:03.810Z,57.90
2022-12-29T15:19:31.867Z,57.90
2022-12-29T15:21:59.718Z,57.90
2022-12-29T15:24:28.913Z,58.10
2022-12-29T15:26:56.776Z,58.00
2022-12-29T15:29:32.449Z,58.00
2022-12-29T15:32:00.567Z,58.00
2022-12-29T15:34:30.951Z,58.00
2022-12-29T15:36:58.827Z,58.10
2022-12-29T15:39:30.356Z,58.30
2022-12-29T15:42:01.794Z,58.70
2022-12-29T15:44:31.671Z,59.10
2022-12-29T15:46:59.531Z,59.80
2022-12-29T15:49:32.044Z,59.10
2022-12-29T15:52:00.442Z,59.00
2022-12-29T15:54:30.736Z,59.10
2022-12-29T15:56:58.592Z,59.30
2022-12-29T15:59:27.451Z,59.40
2022-12-29T16:01:56.062Z,59.60
2022-12-29T16:04:24.127Z,59.80
2022-12-29T16:06:57.156Z,60.10
2022-12-29T16:09:32.979Z,60.10
2022-12-29T16:12:01.920Z,60.10
2022-12-29T16:14:31.947Z,60.50
2022-12-29T16:17:01.105Z,60.60
2022-12-29T16:19:30.769Z,60.50
2022-12-29T16:21:59.275Z,60.40
2022-12-29T16:24:28.022Z,60.40
2022-12-29T16:27:00.380Z,60.40
2022-12-29T16:29:28.210Z,60.60
2022-12-29T16:32:01.549Z,60.50
2022-12-29T16:34:31.410Z,60.40
2022-12-29T16:37:00.236Z,60.30
2022-12-29T16:39:30.507Z,60.70
2022-12-29T16:41:59.808Z,60.70
2022-12-29T16:44:28.854Z,60.60
2022-12-29T16:47:00.453Z,60.80
2022-12-29T16:49:28.358Z,60.70
2022-12-29T16:51:56.240Z,60.50
2022-12-29T16:54:25.130Z,60.40
2022-12-29T16:56:53.107Z,60.40
2022-12-29T16:59:30.388Z,60.20
2022-12-29T17:01:58.798Z,60.30
2022-12-29T17:04:26.841Z,64.40
2022-12-29T17:06:54.701Z,64.20
2022-12-29T17:09:23.315Z,62.80
2022-12-29T17:12:05.260Z,63.30
2022-12-29T17:14:42.332Z,64.00
2022-12-29T17:17:18.523Z,64.90
2022-12-29T17:19:48.511Z,65.20
2022-12-29T17:22:19.162Z,65.50
2022-12-29T17:24:47.027Z,65.40
2022-12-29T17:27:22.368Z,65.30
2022-12-29T17:29:51.626Z,65.40
2022-12-29T17:32:19.500Z,65.70
2022-12-29T17:34:47.361Z,65.40
2022-12-29T17:37:41.155Z,65.30
2022-12-29T17:40:12.164Z,64.90
2022-12-29T17:42:43.050Z,64.50
2022-12-29T17:45:17.101Z,64.20
2022-12-29T17:47:45.198Z,64.20
2022-12-29T17:50:14.695Z,64.40
2022-12-29T17:52:42.885Z,64.60
2022-12-29T17:55:14.637Z,64.60
2022-12-29T17:57:42.511Z,64.90
2022-12-29T18:00:17.055Z,65.00
2022-12-29T18:02:45.391Z,64.90
2022-12-29T18:05:17.953Z,65.60
2022-12-29T18:07:45.852Z,65.40
2022-12-29T18:10:14.149Z,64.80
2022-12-29T18:12:43.125Z,64.70
2022-12-29T18:15:20.291Z,64.40
2022-12-29T18:17:48.286Z,64.30
2022-12-29T18:20:16.795Z,64.20
2022-12-29T18:22:44.703Z,64.50
2022-12-29T18:25:23.919Z,65.20
2022-12-29T18:27:51.832Z,64.90
2022-12-29T18:30:21.080Z,64.70
2022-12-29T18:32:48.957Z,64.90
2022-12-29T18:35:18.763Z,64.70
2022-12-29T18:37:46.631Z,64.60
2022-12-29T18:40:14.599Z,64.70
2022-12-29T18:42:42.488Z,64.60
2022-12-29T18:45:16.582Z,65.50
2022-12-29T18:47:45.972Z,65.10
2022-12-29T18:50:13.823Z,64.50
2022-12-29T18:52:41.718Z,64.30
2022-12-29T18:55:13.093Z,64.20
2022-12-29T18:57:40.986Z,64.30
2022-12-29T19:00:10.189Z,64.20
2022-12-29T19:02:38.285Z,64.30
2022-12-29T19:05:13.504Z,64.20
2022-12-29T19:07:41.360Z,64.40
2022-12-29T19:10:09.639Z,64.40
2022-12-29T19:12:37.481Z,64.40
2022-12-29T19:15:07.096Z,64.40
2022-12-29T19:17:35.183Z,64.40
2022-12-29T19:20:03.529Z,64.30
2022-12-29T19:22:32.737Z,64.50
2022-12-29T19:25:00.659Z,64.50
2022-12-29T19:27:28.621Z,64.50
2022-12-29T19:29:56.673Z,64.50
2022-12-29T19:32:24.554Z,64.30
2022-12-29T19:34:52.392Z,64.30
2022-12-29T19:37:20.230Z,64.20
2022-12-29T19:39:49.426Z,64.10
2022-12-29T19:42:17.341Z,63.80
2022-12-29T19:44:45.279Z,64.50
2022-12-29T19:47:14.012Z,63.00
2022-12-29T19:49:43.326Z,63.00
2022-12-29T19:52:11.311Z,62.80
2022-12-29T19:54:39.528Z,62.90
2022-12-29T19:57:08.844Z,62.70
2022-12-29T19:59:36.790Z,62.80
2022-12-29T20:02:04.904Z,62.70
2022-12-29T20:04:33.001Z,62.60
2022-12-29T20:07:00.885Z,62.60
2022-12-29T20:09:28.777Z,62.30
2022-12-29T20:11:57.265Z,62.30
2022-12-29T20:14:27.666Z,62.20
2022-12-29T20:17:10.687Z,62.00
2022-12-29T20:19:39.406Z,62.10
2022-12-29T20:22:08.458Z,62.00
2022-12-29T20:24:37.141Z,62.00
2022-12-29T20:27:05.288Z,62.00
2022-12-29T20:29:38.648Z,62.00
2022-12-29T20:32:06.860Z,62.10
2022-12-29T20:34:36.874Z,62.10
2022-12-29T20:37:05.131Z,62.10
2022-12-29T20:39:33.092Z,62.40
2022-12-29T20:42:01.706Z,62.30
2022-12-29T20:44:30.115Z,62.30
2022-12-29T20:46:59.477Z,62.30
2022-12-29T20:49:28.711Z,62.60
2022-12-29T20:52:11.928Z,63.80
2022-12-29T20:54:40.190Z,65.50
2022-12-29T20:57:08.206Z,65.90
2022-12-29T20:59:36.085Z,66.50
2022-12-29T21:02:05.836Z,66.90
2022-12-29T21:04:57.605Z,67.30
2022-12-29T21:07:21.966Z,67.10
2022-12-29T21:09:49.849Z,67.20
2022-12-29T21:12:17.767Z,67.00
2022-12-29T21:14:46.214Z,67.10
2022-12-29T21:17:15.554Z,67.10
2022-12-29T21:19:43.430Z,67.00
2022-12-29T21:22:11.300Z,67.10
2022-12-29T21:24:39.543Z,67.10
2022-12-29T21:27:07.434Z,67.00
2022-12-29T21:29:35.331Z,66.80
2022-12-29T21:32:06.376Z,66.80
2022-12-29T21:34:36.347Z,66.70
2022-12-29T21:37:04.311Z,66.70
2022-12-29T21:39:32.193Z,66.60
2022-12-29T21:42:02.537Z,66.60
2022-12-29T21:44:47.774Z,66.60
2022-12-29T21:47:15.706Z,66.10
2022-12-29T21:49:44.987Z,66.00
2022-12-29T21:52:12.850Z,66.20
2022-12-29T21:54:58.307Z,66.40
2022-12-29T21:57:43.960Z,66.40
2022-12-29T22:00:30.858Z,66.30
2022-12-29T22:03:22.478Z,66.20
2022-12-29T22:06:10.328Z,66.20
2022-12-29T22:08:56.126Z,66.10
2022-12-29T22:11:41.749Z,66.00
2022-12-29T22:14:09.682Z,66.10
2022-12-29T22:16:37.601Z,66.10
2022-12-29T22:19:05.555Z,66.10
2022-12-29T22:21:34.946Z,66.10
2022-12-29T22:24:02.897Z,66.30
2022-12-29T22:26:30.818Z,66.00
2022-12-29T22:28:58.938Z,65.70
2022-12-29T22:31:29.602Z,65.40
2022-12-29T22:33:57.707Z,65.40
2022-12-29T22:36:25.700Z,65.20
2022-12-29T22:38:54.953Z,65.10
2022-12-29T22:41:23.248Z,65.10
2022-12-29T22:43:51.192Z,65.00
2022-12-29T22:46:19.227Z,65.00
2022-12-29T22:48:47.115Z,64.90
2022-12-29T22:51:15.058Z,64.90
2022-12-29T22:53:42.944Z,65.00
2022-12-29T22:56:13.126Z,65.00
2022-12-29T22:58:41.190Z,65.00
2022-12-29T23:01:09.463Z,64.90
2022-12-29T23:03:38.197Z,65.00
2022-12-29T23:06:07.360Z,65.00
2022-12-29T23:08:36.215Z,65.10
2022-12-29T23:11:04.243Z,65.10
2022-12-29T23:13:33.446Z,65.00
2022-12-29T23:16:01.377Z,65.20
2022-12-29T23:18:29.467Z,65.10
2022-12-29T23:20:57.363Z,65.10
2022-12-29T23:23:46.274Z,65.20
2022-12-29T23:26:16.585Z,64.80
2022-12-29T23:28:45.778Z,64.70
2022-12-29T23:31:13.733Z,64.60
2022-12-29T23:33:41.741Z,64.40
2022-12-29T23:36:09.819Z,64.50
2022-12-29T23:38:37.722Z,64.40
2022-12-29T23:41:05.870Z,64.40
2022-12-29T23:43:33.776Z,64.30
2022-12-29T23:46:08.644Z,64.30
2022-12-29T23:48:36.597Z,64.30
2022-12-29T23:51:05.419Z,64.20
2022-12-29T23:53:33.310Z,64.30
2022-12-29T23:56:01.208Z,64.30
2022-12-29T23:58:30.509Z,64.60
